Arleta, CA

7:28 PM PDT on September 20, 2014 (GMT -0700)
Whiteman | Change Station
CLOSE
Current Station
Airport
Location: San Fernando,
Elevation: 1004 ft
Nearby Weather Stations

Elev 1004 ft 34.26 °N, 118.41 °W | Updated 41 minutes ago

Clear
Clear
72 °F
Feels Like 72 °F
N
8
Wind Variable Wind from ESE

Today
High -- | Low -- °F
--% Chance of Precip.
Yesterday
High -- | Low -- °F
Precip. -- in
6:40 AM 6:53 PM
Waning Crescent, 9% visible
Pressure 29.93 in
Visibility 20.0 miles
Clouds Clear
Dew Point 59 °F
Humidity 64%
Rainfall 0.00 in
Snow Depth 0 in , 1 in , 0 in
UV 0 out of 12
Pollen 6.80 out of 12
Ozone Good
PM2.5 Moderate
Flu Activity Not available.
METAR KWHP 210147Z 12007KT 20SM SKC 22/15 A2993

More Conditions Fewer Conditions

Pressure 29.93 in
Visibility 20.0 miles
Clouds Clear
Dew Point 59 °F
Humidity 64%
Rainfall 0.00 in
Snow Depth 0 in , 1 in , 0 in
UV 0 out of 12
Pollen 6.80 out of 12
Ozone Good
PM2.5 Moderate
Flu Activity Not available.
METAR KWHP 210147Z 12007KT 20SM SKC 22/15 A2993

More Conditions Fewer Conditions

10-Day Weather Forecast

Almanac

Astronomy

Sep. 20, 2014 Rise Set
Actual Time 6:40 AM PDT 6:53 PM PDT
Civil Twilight 6:15 AM PDT 7:18 PM PDT
Nautical Twilight 5:46 AM PDT 7:47 PM PDT
Astronomical Twilight 5:16 AM PDT 8:17 PM PDT
Moon 3:30 AM PDT (9/20) 4:53 PM PDT (9/20)
Length of Visible Light 13h 02m
Length of Day
12h 12m
Tomorrow will be 2m 7s shorter.
Waning Crescent, 9% of the Moon is Illuminated
Today
Waning Crescent
Sep 24
New
Oct 1
First Quarter
Oct 8
Full
Oct 15
Last Quarter

Today's Extremes

State Highs State Lows

Community

WunderPhotos

Upload Photos

1,755,032 photos uploaded!

WunderBlogs® & News

Nearby

Air Quality

  Air Quality AQ Index Pollutant
Yesterday Moderate
PM2.5
Yesterday Good
OZONE
Current Moderate
PM2.5
Current Good
OZONE
Sunday Good
PM10
Sunday Moderate
OZONE
Sunday Good
CO
Sunday Good
NO2

Snow Depth

Station Depth Elevation
Monitor Pass 0 in 8350 ft
Echo Peak 1 in 7800 ft
Leavitt Lake 0 in 9400 ft
Leavitt Meadows 1 in 7200 ft
Summit Meadow 0 in 9122 ft

Earthquake Activity

City Distance Mag. Time & Date
Inyokern, California 127 miles 3.1 5:33 PM PDT
2014-09-19
Aguanga, California 108 miles 2.5 1:38 AM PDT
2014-09-19
Corcoran, California 143 miles 2.9 3:59 PM PDT
2014-09-18
Minimum magnitude displayed is 2.5.

Coastal Water Temperatures

Place Temperature
Santa Monica Pier 71.1 °F
Los Angeles, CA 66.9 °F
La Jolla, CA 72.0 °F

Nearby Weather Stations